createdAt,value
2023-03-16T00:00:04.139Z,-4.09
2023-03-16T00:00:15.890Z,-4.09
2023-03-16T00:00:29.554Z,-4.10
2023-03-16T00:00:41.451Z,-4.10
2023-03-16T00:00:53.718Z,-4.10
2023-03-16T00:01:08.059Z,-4.10
2023-03-16T00:01:20.458Z,-4.10
2023-03-16T00:01:32.914Z,-4.12
2023-03-16T00:01:45.494Z,-4.12
2023-03-16T00:01:56.228Z,-4.10
2023-03-16T00:02:09.512Z,-4.12
2023-03-16T00:02:20.427Z,-4.12
2023-03-16T00:02:31.222Z,-4.12
2023-03-16T00:02:42.019Z,-4.13
2023-03-16T00:02:54.958Z,-4.12
2023-03-16T00:03:05.861Z,-4.13
2023-03-16T00:03:16.633Z,-4.12
2023-03-16T00:03:27.489Z,-4.13
2023-03-16T00:03:38.354Z,-4.13
2023-03-16T00:03:50.088Z,-4.13
2023-03-16T00:04:00.862Z,-4.13
2023-03-16T00:04:11.660Z,-4.13
2023-03-16T00:04:23.507Z,-4.13
2023-03-16T00:04:34.310Z,-4.12
2023-03-16T00:04:45.934Z,-4.13
2023-03-16T00:04:58.887Z,-4.13
2023-03-16T00:05:09.640Z,-4.13
2023-03-16T00:05:20.394Z,-4.13
2023-03-16T00:05:31.189Z,-4.13
2023-03-16T00:05:44.181Z,-4.13
2023-03-16T00:05:54.928Z,-4.13
2023-03-16T00:06:08.157Z,-4.13
2023-03-16T00:06:18.917Z,-4.13
2023-03-16T00:06:29.678Z,-4.13
2023-03-16T00:06:42.311Z,-4.15
2023-03-16T00:06:55.558Z,-4.15
2023-03-16T00:07:07.269Z,-4.13
2023-03-16T00:07:18.030Z,-4.13
2023-03-16T00:07:29.860Z,-4.15
2023-03-16T00:07:41.608Z,-4.15
2023-03-16T00:07:55.833Z,-4.15
2023-03-16T00:08:08.038Z,-4.15
2023-03-16T00:08:21.011Z,-4.15
2023-03-16T00:08:31.737Z,-4.15
2023-03-16T00:08:42.479Z,-4.16
2023-03-16T00:08:55.020Z,-4.16
2023-03-16T00:09:05.774Z,-4.16
2023-03-16T00:09:16.599Z,-4.16
2023-03-16T00:09:28.835Z,-4.17
2023-03-16T00:09:40.582Z,-4.16
2023-03-16T00:09:52.322Z,-4.17
2023-03-16T00:10:03.101Z,-4.16
2023-03-16T00:10:15.530Z,-4.17
2023-03-16T00:10:26.667Z,-4.17
2023-03-16T00:10:37.529Z,-4.16
2023-03-16T00:10:50.002Z,-4.16
2023-03-16T00:11:01.709Z,-4.17
2023-03-16T00:11:12.481Z,-4.16
2023-03-16T00:11:24.198Z,-4.17
2023-03-16T00:11:35.981Z,-4.17
2023-03-16T00:11:47.689Z,-4.16
2023-03-16T00:11:59.438Z,-4.16
2023-03-16T00:12:10.240Z,-4.16
2023-03-16T00:12:22.079Z,-4.16
2023-03-16T00:12:32.840Z,-4.16
2023-03-16T00:12:45.361Z,-4.16
2023-03-16T00:12:57.813Z,-4.17
2023-03-16T00:13:11.007Z,-4.16
2023-03-16T00:13:23.208Z,-4.17
2023-03-16T00:13:35.690Z,-4.17
2023-03-16T00:13:46.471Z,-4.17
2023-03-16T00:13:57.221Z,-4.17
2023-03-16T00:14:09.645Z,-4.19
2023-03-16T00:14:20.431Z,-4.17
2023-03-16T00:14:31.214Z,-4.17
2023-03-16T00:14:43.721Z,-4.19
2023-03-16T00:14:55.418Z,-4.19
2023-03-16T00:15:06.179Z,-4.17
2023-03-16T00:15:18.668Z,-4.17
2023-03-16T00:15:30.478Z,-4.17
2023-03-16T00:15:42.206Z,-4.17
2023-03-16T00:15:52.968Z,-4.17
2023-03-16T00:16:03.763Z,-4.19
2023-03-16T00:16:14.599Z,-4.17
2023-03-16T00:16:26.826Z,-4.19
2023-03-16T00:16:39.450Z,-4.19
2023-03-16T00:16:51.672Z,-4.17
2023-03-16T00:17:02.519Z,-4.19
2023-03-16T00:17:14.951Z,-4.19
2023-03-16T00:17:25.713Z,-4.19
2023-03-16T00:17:38.159Z,-4.20
2023-03-16T00:17:50.629Z,-4.19
2023-03-16T00:18:01.395Z,-4.19
2023-03-16T00:18:12.353Z,-4.19
2023-03-16T00:18:23.135Z,-4.20
2023-03-16T00:18:33.910Z,-4.20
2023-03-16T00:18:44.713Z,-4.19
2023-03-16T00:18:55.449Z,-4.20
2023-03-16T00:19:06.196Z,-4.20
2023-03-16T00:19:19.410Z,-4.20
2023-03-16T00:19:31.651Z,-4.22
2023-03-16T00:19:43.880Z,-4.22
2023-03-16T00:19:54.658Z,-4.20
2023-03-16T00:20:07.641Z,-4.22
2023-03-16T00:20:19.856Z,-4.22
2023-03-16T00:20:31.596Z,-4.22
2023-03-16T00:20:44.076Z,-4.22
2023-03-16T00:20:56.041Z,-4.22
2023-03-16T00:21:08.511Z,-4.22
2023-03-16T00:21:19.281Z,-4.22
2023-03-16T00:21:31.028Z,-4.22
2023-03-16T00:21:44.237Z,-4.22
2023-03-16T00:21:55.153Z,-4.23
2023-03-16T00:22:07.601Z,-4.22
2023-03-16T00:22:19.306Z,-4.22
2023-03-16T00:22:31.547Z,-4.22
2023-03-16T00:22:43.307Z,-4.22
2023-03-16T00:22:55.796Z,-4.20
2023-03-16T00:23:07.509Z,-4.22
2023-03-16T00:23:18.312Z,-4.22
2023-03-16T00:23:30.550Z,-4.22
2023-03-16T00:23:42.513Z,-4.22
2023-03-16T00:23:53.266Z,-4.22
2023-03-16T00:24:04.030Z,-4.22
2023-03-16T00:24:17.363Z,-4.20
2023-03-16T00:24:28.122Z,-4.20
2023-03-16T00:24:40.553Z,-4.22
2023-03-16T00:24:52.289Z,-4.20
2023-03-16T00:25:03.982Z,-4.19
2023-03-16T00:25:16.433Z,-4.19
2023-03-16T00:25:27.180Z,-4.19
2023-03-16T00:25:37.945Z,-4.19
2023-03-16T00:25:50.890Z,-4.19
2023-03-16T00:26:01.785Z,-4.19
2023-03-16T00:26:14.631Z,-4.17
2023-03-16T00:26:27.821Z,-4.16
2023-03-16T00:26:39.552Z,-4.16
2023-03-16T00:26:51.994Z,-4.17
2023-03-16T00:27:02.772Z,-4.16
2023-03-16T00:27:13.542Z,-4.16
2023-03-16T00:27:24.290Z,-4.16
2023-03-16T00:27:36.744Z,-4.16
2023-03-16T00:27:48.489Z,-4.15
2023-03-16T00:28:00.904Z,-4.15
2023-03-16T00:28:13.130Z,-4.16
2023-03-16T00:28:23.889Z,-4.16
2023-03-16T00:28:34.673Z,-4.15
2023-03-16T00:28:46.590Z,-4.15
2023-03-16T00:28:58.362Z,-4.15
2023-03-16T00:29:09.120Z,-4.13
2023-03-16T00:29:21.086Z,-4.15
2023-03-16T00:29:31.872Z,-4.15
2023-03-16T00:29:44.601Z,-4.13
2023-03-16T00:29:55.342Z,-4.15
2023-03-16T00:30:06.159Z,-4.13
2023-03-16T00:30:17.871Z,-4.13
2023-03-16T00:30:31.363Z,-4.13
2023-03-16T00:30:43.069Z,-4.13
2023-03-16T00:30:55.299Z,-4.15
2023-03-16T00:31:08.083Z,-4.13
2023-03-16T00:31:20.589Z,-4.13
2023-03-16T00:31:32.821Z,-4.15
2023-03-16T00:31:44.937Z,-4.15
2023-03-16T00:31:55.752Z,-4.15
2023-03-16T00:32:06.582Z,-4.15
2023-03-16T00:32:18.612Z,-4.13
2023-03-16T00:32:29.418Z,-4.15
2023-03-16T00:32:41.754Z,-4.15
2023-03-16T00:32:53.477Z,-4.15
2023-03-16T00:33:05.108Z,-4.16
2023-03-16T00:33:16.843Z,-4.15
2023-03-16T00:33:27.650Z,-4.16
2023-03-16T00:33:39.369Z,-4.16
2023-03-16T00:33:50.097Z,-4.16
2023-03-16T00:34:00.890Z,-4.13
2023-03-16T00:34:12.616Z,-4.16
2023-03-16T00:34:24.807Z,-4.15
2023-03-16T00:34:35.577Z,-4.15
2023-03-16T00:34:47.348Z,-4.15
2023-03-16T00:34:59.046Z,-4.13
2023-03-16T00:35:09.949Z,-4.16
2023-03-16T00:35:23.668Z,-4.15
2023-03-16T00:35:34.483Z,-4.16
2023-03-16T00:35:45.283Z,-4.15
2023-03-16T00:35:57.771Z,-4.15
2023-03-16T00:36:10.995Z,-4.13
2023-03-16T00:36:21.742Z,-4.15
2023-03-16T00:36:33.480Z,-4.15
2023-03-16T00:36:46.430Z,-4.13
2023-03-16T00:36:57.175Z,-4.15
2023-03-16T00:37:09.674Z,-4.15
2023-03-16T00:37:22.234Z,-4.15
2023-03-16T00:37:33.080Z,-4.15
2023-03-16T00:37:46.378Z,-4.16
2023-03-16T00:37:57.826Z,-4.16
2023-03-16T00:38:09.535Z,-4.16
2023-03-16T00:38:21.287Z,-4.16
2023-03-16T00:38:33.005Z,-4.15
2023-03-16T00:38:44.731Z,-4.16
2023-03-16T00:38:55.543Z,-4.15
2023-03-16T00:39:07.329Z,-4.16
2023-03-16T00:39:18.337Z,-4.15
2023-03-16T00:39:29.148Z,-4.15
2023-03-16T00:39:41.613Z,-4.15
2023-03-16T00:39:52.420Z,-4.13
2023-03-16T00:40:03.178Z,-4.13
2023-03-16T00:40:13.922Z,-4.12
2023-03-16T00:40:24.760Z,-4.13
2023-03-16T00:40:35.544Z,-4.12
2023-03-16T00:40:46.294Z,-4.12
2023-03-16T00:40:59.281Z,-4.10
2023-03-16T00:41:11.030Z,-4.09
2023-03-16T00:41:23.627Z,-4.09
2023-03-16T00:41:34.405Z,-4.09
2023-03-16T00:41:46.619Z,-4.07
2023-03-16T00:41:57.397Z,-4.06
2023-03-16T00:42:08.191Z,-4.06
2023-03-16T00:42:19.948Z,-4.04
2023-03-16T00:42:32.365Z,-4.06
2023-03-16T00:42:44.852Z,-4.04
2023-03-16T00:42:55.669Z,-4.04
2023-03-16T00:43:08.139Z,-4.04
2023-03-16T00:43:20.588Z,-4.06
2023-03-16T00:43:31.415Z,-4.06
2023-03-16T00:43:43.895Z,-4.06
2023-03-16T00:43:54.645Z,-4.06
2023-03-16T00:44:07.145Z,-4.04
2023-03-16T00:44:18.863Z,-4.06
2023-03-16T00:44:29.590Z,-4.06
2023-03-16T00:44:41.333Z,-4.06
2023-03-16T00:44:52.139Z,-4.04
2023-03-16T00:45:02.904Z,-4.06
2023-03-16T00:45:13.666Z,-4.06
2023-03-16T00:45:25.463Z,-4.07
2023-03-16T00:45:36.338Z,-4.06
2023-03-16T00:45:49.134Z,-4.07
2023-03-16T00:46:00.094Z,-4.07
2023-03-16T00:46:11.214Z,-4.07
2023-03-16T00:46:22.994Z,-4.07
2023-03-16T00:46:34.676Z,-4.06
2023-03-16T00:46:47.121Z,-4.07
2023-03-16T00:46:58.877Z,-4.09
2023-03-16T00:47:09.665Z,-4.07
2023-03-16T00:47:22.895Z,-4.07
2023-03-16T00:47:34.612Z,-4.07
2023-03-16T00:47:47.119Z,-4.09
2023-03-16T00:47:59.599Z,-4.07
2023-03-16T00:48:12.309Z,-4.09
2023-03-16T00:48:23.153Z,-4.07
2023-03-16T00:48:33.888Z,-4.09
2023-03-16T00:48:44.627Z,-4.09
2023-03-16T00:48:55.385Z,-4.07
2023-03-16T00:49:06.205Z,-4.09
2023-03-16T00:49:19.923Z,-4.10
2023-03-16T00:49:31.662Z,-4.09
2023-03-16T00:49:43.908Z,-4.09
2023-03-16T00:49:54.857Z,-4.09
2023-03-16T00:50:07.307Z,-4.09
2023-03-16T00:50:19.037Z,-4.10
2023-03-16T00:50:31.502Z,-4.12
2023-03-16T00:50:44.727Z,-4.10
2023-03-16T00:50:56.410Z,-4.12
2023-03-16T00:51:08.189Z,-4.12
2023-03-16T00:51:19.945Z,-4.13
2023-03-16T00:51:30.695Z,-4.13
2023-03-16T00:51:43.425Z,-4.13
2023-03-16T00:51:55.915Z,-4.13
2023-03-16T00:52:07.640Z,-4.15
2023-03-16T00:52:19.327Z,-4.15
2023-03-16T00:52:30.109Z,-4.13
2023-03-16T00:52:42.564Z,-4.16
2023-03-16T00:52:53.334Z,-4.15
2023-03-16T00:53:05.087Z,-4.15
2023-03-16T00:53:17.514Z,-4.16
2023-03-16T00:53:29.588Z,-4.16
2023-03-16T00:53:40.569Z,-4.16
2023-03-16T00:53:51.405Z,-4.17
2023-03-16T00:54:03.124Z,-4.19
2023-03-16T00:54:14.836Z,-4.17
2023-03-16T00:54:26.549Z,-4.17
2023-03-16T00:54:37.346Z,-4.17
2023-03-16T00:54:48.103Z,-4.17
2023-03-16T00:55:00.325Z,-4.19
2023-03-16T00:55:11.107Z,-4.20
2023-03-16T00:55:21.888Z,-4.20
2023-03-16T00:55:35.521Z,-4.20
2023-03-16T00:55:47.247Z,-4.20
2023-03-16T00:55:58.046Z,-4.22
2023-03-16T00:56:10.008Z,-4.20
2023-03-16T00:56:21.770Z,-4.22
2023-03-16T00:56:32.551Z,-4.22
2023-03-16T00:56:45.000Z,-4.23
2023-03-16T00:56:58.205Z,-4.23
2023-03-16T00:57:10.632Z,-4.23
2023-03-16T00:57:21.396Z,-4.23
2023-03-16T00:57:32.200Z,-4.26
2023-03-16T00:57:44.675Z,-4.23
2023-03-16T00:57:55.489Z,-4.26
2023-03-16T00:58:07.982Z,-4.26
2023-03-16T00:58:20.459Z,-4.26
2023-03-16T00:58:31.248Z,-4.26
2023-03-16T00:58:42.017Z,-4.27
2023-03-16T00:58:52.786Z,-4.26
2023-03-16T00:59:03.602Z,-4.27
2023-03-16T00:59:14.386Z,-4.26
2023-03-16T00:59:25.125Z,-4.27
2023-03-16T00:59:37.856Z,-4.28
2023-03-16T00:59:49.815Z,-4.27
2023-03-16T01:00:02.089Z,-4.27
2023-03-16T01:00:13.150Z,-4.27
2023-03-16T01:00:25.977Z,-4.28
2023-03-16T01:00:36.907Z,-4.28
2023-03-16T01:00:49.924Z,-4.28
2023-03-16T01:01:02.877Z,-4.27
2023-03-16T01:01:13.773Z,-4.27
2023-03-16T01:01:25.621Z,-4.28
2023-03-16T01:01:38.244Z,-4.28
2023-03-16T01:01:49.005Z,-4.28
2023-03-16T01:02:01.483Z,-4.30
2023-03-16T01:02:12.424Z,-4.30
2023-03-16T01:02:24.147Z,-4.28
2023-03-16T01:02:34.986Z,-4.30
2023-03-16T01:02:45.833Z,-4.30
2023-03-16T01:02:56.635Z,-4.30
2023-03-16T01:03:08.870Z,-4.28
2023-03-16T01:03:19.694Z,-4.30
2023-03-16T01:03:30.483Z,-4.30
2023-03-16T01:03:41.246Z,-4.30
2023-03-16T01:03:52.094Z,-4.30
2023-03-16T01:04:03.900Z,-4.30
2023-03-16T01:04:15.679Z,-4.30
2023-03-16T01:04:27.439Z,-4.31
2023-03-16T01:04:38.190Z,-4.31
2023-03-16T01:04:50.003Z,-4.33
2023-03-16T01:05:00.781Z,-4.30
2023-03-16T01:05:11.568Z,-4.31
2023-03-16T01:05:22.379Z,-4.31
2023-03-16T01:05:34.220Z,-4.33
2023-03-16T01:05:45.011Z,-4.31
2023-03-16T01:05:56.861Z,-4.31
2023-03-16T01:06:09.436Z,-4.31
2023-03-16T01:06:20.277Z,-4.31
2023-03-16T01:06:31.136Z,-4.30
2023-03-16T01:06:43.659Z,-4.30
2023-03-16T01:06:54.437Z,-4.30
2023-03-16T01:07:06.648Z,-4.31
2023-03-16T01:07:17.403Z,-4.31
2023-03-16T01:07:29.158Z,-4.31
2023-03-16T01:07:40.888Z,-4.30
2023-03-16T01:07:53.142Z,-4.31
2023-03-16T01:08:03.964Z,-4.30
2023-03-16T01:08:15.734Z,-4.31
2023-03-16T01:08:26.488Z,-4.30
2023-03-16T01:08:39.059Z,-4.28
2023-03-16T01:08:49.870Z,-4.31
2023-03-16T01:09:00.725Z,-4.31
2023-03-16T01:09:11.509Z,-4.31
2023-03-16T01:09:23.964Z,-4.30
2023-03-16T01:09:34.708Z,-4.31
2023-03-16T01:09:45.506Z,-4.30
2023-03-16T01:09:56.287Z,-4.31
2023-03-16T01:10:08.073Z,-4.31
2023-03-16T01:10:18.816Z,-4.31
2023-03-16T01:10:30.002Z,-4.30
2023-03-16T01:10:43.212Z,-4.30
2023-03-16T01:10:53.970Z,-4.31
2023-03-16T01:11:04.719Z,-4.30
2023-03-16T01:11:15.506Z,-4.30
2023-03-16T01:11:26.275Z,-4.31
2023-03-16T01:11:38.432Z,-4.31
2023-03-16T01:11:49.229Z,-4.30
2023-03-16T01:12:01.708Z,-4.31
2023-03-16T01:12:13.998Z,-4.31
2023-03-16T01:12:26.438Z,-4.31
2023-03-16T01:12:37.313Z,-4.30
2023-03-16T01:12:48.092Z,-4.33
2023-03-16T01:12:58.877Z,-4.33
2023-03-16T01:13:11.818Z,-4.33
2023-03-16T01:13:23.555Z,-4.33
2023-03-16T01:13:34.281Z,-4.31
2023-03-16T01:13:45.050Z,-4.33
2023-03-16T01:13:58.003Z,-4.33
2023-03-16T01:14:08.756Z,-4.33
2023-03-16T01:14:21.228Z,-4.33
2023-03-16T01:14:33.749Z,-4.33
2023-03-16T01:14:46.277Z,-4.33
2023-03-16T01:14:57.022Z,-4.33
2023-03-16T01:15:08.739Z,-4.33
2023-03-16T01:15:19.513Z,-4.33
2023-03-16T01:15:31.948Z,-4.34
2023-03-16T01:15:42.738Z,-4.34
2023-03-16T01:15:53.530Z,-4.33
2023-03-16T01:16:05.990Z,-4.33
2023-03-16T01:16:19.170Z,-4.33
2023-03-16T01:16:32.038Z,-4.34
2023-03-16T01:16:43.846Z,-4.33
2023-03-16T01:16:54.723Z,-4.34
2023-03-16T01:17:05.504Z,-4.34
2023-03-16T01:17:17.362Z,-4.34
2023-03-16T01:17:28.129Z,-4.34
2023-03-16T01:17:38.914Z,-4.34
2023-03-16T01:17:49.638Z,-4.33
2023-03-16T01:18:00.429Z,-4.36
2023-03-16T01:18:11.212Z,-4.36
2023-03-16T01:18:22.091Z,-4.34
2023-03-16T01:18:33.863Z,-4.34
2023-03-16T01:18:44.665Z,-4.34
2023-03-16T01:18:55.493Z,-4.33
2023-03-16T01:19:06.231Z,-4.34
2023-03-16T01:19:17.029Z,-4.36
2023-03-16T01:19:27.779Z,-4.34
2023-03-16T01:19:40.238Z,-4.34
2023-03-16T01:19:51.009Z,-4.34
2023-03-16T01:20:02.730Z,-4.33
2023-03-16T01:20:13.501Z,-4.34
2023-03-16T01:20:26.157Z,-4.34
2023-03-16T01:20:37.953Z,-4.34
2023-03-16T01:20:49.700Z,-4.36
2023-03-16T01:21:00.452Z,-4.36
2023-03-16T01:21:11.217Z,-4.36
2023-03-16T01:21:22.066Z,-4.37
2023-03-16T01:21:33.769Z,-4.36
2023-03-16T01:21:44.828Z,-4.37
2023-03-16T01:21:55.607Z,-4.37
2023-03-16T01:22:07.202Z,-4.38
2023-03-16T01:22:18.868Z,-4.38
2023-03-16T01:22:30.609Z,-4.38
2023-03-16T01:22:42.366Z,-4.40
2023-03-16T01:22:54.640Z,-4.40
2023-03-16T01:23:06.395Z,-4.41
2023-03-16T01:23:18.644Z,-4.41
2023-03-16T01:23:31.109Z,-4.41
2023-03-16T01:23:41.889Z,-4.41
2023-03-16T01:23:52.670Z,-4.44
2023-03-16T01:24:04.390Z,-4.41
2023-03-16T01:24:15.159Z,-4.41
2023-03-16T01:24:28.138Z,-4.44
2023-03-16T01:24:40.391Z,-4.44
2023-03-16T01:24:52.841Z,-4.45
2023-03-16T01:25:04.587Z,-4.45
2023-03-16T01:25:15.483Z,-4.45
2023-03-16T01:25:26.276Z,-4.45
2023-03-16T01:25:38.760Z,-4.48
2023-03-16T01:25:50.500Z,-4.46
2023-03-16T01:26:02.962Z,-4.45
2023-03-16T01:26:14.668Z,-4.46
2023-03-16T01:26:25.432Z,-4.48
2023-03-16T01:26:36.169Z,-4.48
2023-03-16T01:26:48.470Z,-4.48
2023-03-16T01:26:59.309Z,-4.48
2023-03-16T01:27:11.554Z,-4.46
2023-03-16T01:27:24.490Z,-4.48
2023-03-16T01:27:35.300Z,-4.48
2023-03-16T01:27:47.760Z,-4.49
2023-03-16T01:27:58.523Z,-4.51
2023-03-16T01:28:10.959Z,-4.49
2023-03-16T01:28:23.430Z,-4.49
2023-03-16T01:28:35.906Z,-4.51
2023-03-16T01:28:46.645Z,-4.52
2023-03-16T01:28:59.930Z,-4.49
2023-03-16T01:29:10.864Z,-4.49
2023-03-16T01:29:23.340Z,-4.51
2023-03-16T01:29:34.121Z,-4.51
2023-03-16T01:29:45.909Z,-4.49
2023-03-16T01:29:57.638Z,-4.51
2023-03-16T01:30:08.400Z,-4.51
2023-03-16T01:30:20.627Z,-4.51
2023-03-16T01:30:32.334Z,-4.51
2023-03-16T01:30:43.082Z,-4.52
2023-03-16T01:30:53.869Z,-4.49
2023-03-16T01:31:04.692Z,-4.49
2023-03-16T01:31:17.273Z,-4.51
2023-03-16T01:31:29.756Z,-4.49
2023-03-16T01:31:41.481Z,-4.49
2023-03-16T01:31:52.308Z,-4.49
2023-03-16T01:32:03.120Z,-4.49
2023-03-16T01:32:15.171Z,-4.49
2023-03-16T01:32:26.149Z,-4.51
2023-03-16T01:32:37.935Z,-4.49
2023-03-16T01:32:48.754Z,-4.48
2023-03-16T01:33:01.256Z,-4.49
2023-03-16T01:33:12.038Z,-4.49
2023-03-16T01:33:24.502Z,-4.49
2023-03-16T01:33:35.245Z,-4.48
2023-03-16T01:33:46.732Z,-4.48
2023-03-16T01:33:59.210Z,-4.48
2023-03-16T01:34:10.920Z,-4.48
2023-03-16T01:34:21.761Z,-4.48
2023-03-16T01:34:32.576Z,-4.48
2023-03-16T01:34:43.358Z,-4.49
2023-03-16T01:34:57.537Z,-4.48
2023-03-16T01:35:09.746Z,-4.49
2023-03-16T01:35:20.545Z,-4.49
2023-03-16T01:35:31.408Z,-4.51
2023-03-16T01:35:45.116Z,-4.51
2023-03-16T01:35:56.044Z,-4.52
2023-03-16T01:36:10.271Z,-4.51
2023-03-16T01:36:21.087Z,-4.52
2023-03-16T01:36:31.855Z,-4.52
2023-03-16T01:36:42.594Z,-4.52
2023-03-16T01:36:54.859Z,-4.54
2023-03-16T01:37:05.651Z,-4.54
2023-03-16T01:37:16.394Z,-4.55
2023-03-16T01:37:29.610Z,-4.55
2023-03-16T01:37:40.576Z,-4.56
2023-03-16T01:37:53.031Z,-4.56
2023-03-16T01:38:03.803Z,-4.58
2023-03-16T01:38:14.577Z,-4.58
2023-03-16T01:38:25.460Z,-4.56
2023-03-16T01:38:36.211Z,-4.58
2023-03-16T01:38:48.651Z,-4.59
2023-03-16T01:38:59.443Z,-4.59
2023-03-16T01:39:10.222Z,-4.62
2023-03-16T01:39:20.993Z,-4.62
2023-03-16T01:39:31.787Z,-4.62
2023-03-16T01:39:43.777Z,-4.62
2023-03-16T01:39:54.541Z,-4.63
2023-03-16T01:40:05.341Z,-4.63
2023-03-16T01:40:17.802Z,-4.65
2023-03-16T01:40:30.423Z,-4.65
2023-03-16T01:40:41.171Z,-4.66
2023-03-16T01:40:52.026Z,-4.66
2023-03-16T01:41:02.765Z,-4.66
2023-03-16T01:41:14.514Z,-4.65
2023-03-16T01:41:26.206Z,-4.66
2023-03-16T01:41:37.012Z,-4.66
2023-03-16T01:41:47.746Z,-4.67
2023-03-16T01:41:58.555Z,-4.67
2023-03-16T01:42:10.815Z,-4.67
2023-03-16T01:42:23.351Z,-4.67
2023-03-16T01:42:34.112Z,-4.69
2023-03-16T01:42:44.972Z,-4.69
2023-03-16T01:42:57.208Z,-4.69
2023-03-16T01:43:08.929Z,-4.70
2023-03-16T01:43:21.420Z,-4.70
2023-03-16T01:43:34.623Z,-4.70
2023-03-16T01:43:46.340Z,-4.70
2023-03-16T01:43:57.212Z,-4.72
2023-03-16T01:44:08.009Z,-4.70
2023-03-16T01:44:19.752Z,-4.72
2023-03-16T01:44:30.716Z,-4.72
2023-03-16T01:44:42.442Z,-4.72
2023-03-16T01:44:53.251Z,-4.72
2023-03-16T01:45:05.709Z,-4.73
2023-03-16T01:45:16.543Z,-4.74
2023-03-16T01:45:28.765Z,-4.72
2023-03-16T01:45:41.264Z,-4.73
2023-03-16T01:45:52.073Z,-4.73
2023-03-16T01:46:02.885Z,-4.73
2023-03-16T01:46:15.178Z,-4.73
2023-03-16T01:46:26.127Z,-4.74
2023-03-16T01:46:36.959Z,-4.73
2023-03-16T01:46:49.418Z,-4.74
2023-03-16T01:47:01.215Z,-4.73
2023-03-16T01:47:12.012Z,-4.74
2023-03-16T01:47:23.760Z,-4.73
2023-03-16T01:47:34.552Z,-4.74
2023-03-16T01:47:46.500Z,-4.74
2023-03-16T01:47:58.260Z,-4.74
2023-03-16T01:48:09.053Z,-4.74
2023-03-16T01:48:23.606Z,-4.74
2023-03-16T01:48:37.100Z,-4.74
2023-03-16T01:48:48.872Z,-4.74
2023-03-16T01:49:01.361Z,-4.74
2023-03-16T01:49:13.307Z,-4.74
2023-03-16T01:49:24.105Z,-4.74
2023-03-16T01:49:34.855Z,-4.74
2023-03-16T01:49:47.089Z,-4.73
2023-03-16T01:49:59.530Z,-4.73
2023-03-16T01:50:10.367Z,-4.73
2023-03-16T01:50:21.173Z,-4.72
2023-03-16T01:50:31.935Z,-4.74
2023-03-16T01:50:44.393Z,-4.73
2023-03-16T01:50:56.151Z,-4.73
2023-03-16T01:51:07.870Z,-4.73
2023-03-16T01:51:18.681Z,-4.72
2023-03-16T01:51:31.801Z,-4.74
2023-03-16T01:51:43.552Z,-4.76
2023-03-16T01:51:56.105Z,-4.73
2023-03-16T01:52:06.897Z,-4.73
2023-03-16T01:52:17.655Z,-4.74
2023-03-16T01:52:30.096Z,-4.76
2023-03-16T01:52:42.570Z,-4.74
2023-03-16T01:52:55.040Z,-4.76
2023-03-16T01:53:05.799Z,-4.77
2023-03-16T01:53:19.016Z,-4.77
2023-03-16T01:53:30.833Z,-4.79
2023-03-16T01:53:41.648Z,-4.77
2023-03-16T01:53:52.405Z,-4.79
2023-03-16T01:54:03.193Z,-4.81
2023-03-16T01:54:13.989Z,-4.83
2023-03-16T01:54:26.457Z,-4.81
2023-03-16T01:54:38.214Z,-4.81
2023-03-16T01:54:50.411Z,-4.83
2023-03-16T01:55:01.192Z,-4.81
2023-03-16T01:55:12.016Z,-4.83
2023-03-16T01:55:22.764Z,-4.83
2023-03-16T01:55:33.543Z,-4.83
2023-03-16T01:55:44.363Z,-4.83
2023-03-16T01:55:56.805Z,-4.84
2023-03-16T01:56:09.059Z,-4.84
2023-03-16T01:56:21.770Z,-4.84
2023-03-16T01:56:32.644Z,-4.85
2023-03-16T01:56:44.557Z,-4.85
2023-03-16T01:56:57.139Z,-4.85
2023-03-16T01:57:09.649Z,-4.88
2023-03-16T01:57:20.405Z,-4.87
2023-03-16T01:57:32.150Z,-4.88
2023-03-16T01:57:43.965Z,-4.87
2023-03-16T01:57:56.398Z,-4.88
2023-03-16T01:58:07.147Z,-4.88
2023-03-16T01:58:18.870Z,-4.88
2023-03-16T01:58:30.715Z,-4.88
2023-03-16T01:58:41.498Z,-4.88
2023-03-16T01:58:53.672Z,-4.90
2023-03-16T01:59:06.123Z,-4.90
2023-03-16T01:59:19.384Z,-4.90
2023-03-16T01:59:31.123Z,-4.90
2023-03-16T01:59:41.894Z,-4.90
2023-03-16T01:59:52.694Z,-4.90
2023-03-16T02:00:03.454Z,-4.90
2023-03-16T02:00:15.213Z,-4.90
2023-03-16T02:00:27.824Z,-4.91
2023-03-16T02:00:38.781Z,-4.91
2023-03-16T02:00:50.581Z,-4.91
2023-03-16T02:01:02.548Z,-4.93
2023-03-16T02:01:14.376Z,-4.91
2023-03-16T02:01:26.847Z,-4.91
2023-03-16T02:01:37.724Z,-4.93
2023-03-16T02:01:49.474Z,-4.91
2023-03-16T02:02:00.216Z,-4.93
2023-03-16T02:02:11.953Z,-4.93
2023-03-16T02:02:22.785Z,-4.93
2023-03-16T02:02:35.242Z,-4.91
2023-03-16T02:02:46.040Z,-4.93
2023-03-16T02:02:56.769Z,-4.94
2023-03-16T02:03:09.253Z,-4.93
2023-03-16T02:03:20.070Z,-4.94
2023-03-16T02:03:31.814Z,-4.93
2023-03-16T02:03:43.505Z,-4.94
2023-03-16T02:03:55.338Z,-4.94
2023-03-16T02:04:06.253Z,-4.94
2023-03-16T02:04:18.825Z,-4.94
2023-03-16T02:04:29.756Z,-4.94
2023-03-16T02:04:40.893Z,-4.94
2023-03-16T02:04:53.109Z,-4.93
2023-03-16T02:05:03.934Z,-4.94
2023-03-16T02:05:16.395Z,-4.94
2023-03-16T02:05:28.143Z,-4.95
2023-03-16T02:05:38.986Z,-4.94
2023-03-16T02:05:49.723Z,-4.94
2023-03-16T02:06:02.154Z,-4.93
2023-03-16T02:06:15.885Z,-4.94
2023-03-16T02:06:28.325Z,-4.94
2023-03-16T02:06:39.102Z,-4.94
2023-03-16T02:06:52.325Z,-4.95
2023-03-16T02:07:04.062Z,-4.94
2023-03-16T02:07:17.170Z,-4.94
2023-03-16T02:07:29.014Z,-4.95
2023-03-16T02:07:39.792Z,-4.95
2023-03-16T02:07:50.574Z,-4.94
2023-03-16T02:08:01.346Z,-4.95
2023-03-16T02:08:13.603Z,-4.95
2023-03-16T02:08:24.376Z,-4.95
2023-03-16T02:08:35.194Z,-4.97
2023-03-16T02:08:45.935Z,-4.94
2023-03-16T02:08:56.865Z,-4.95
2023-03-16T02:09:10.609Z,-4.97
2023-03-16T02:09:21.383Z,-4.99
2023-03-16T02:09:32.153Z,-4.97
2023-03-16T02:09:42.933Z,-4.97
2023-03-16T02:09:55.478Z,-4.97
2023-03-16T02:10:07.915Z,-4.97
2023-03-16T02:10:19.868Z,-4.99
2023-03-16T02:10:32.065Z,-4.97
2023-03-16T02:10:43.857Z,-4.99
2023-03-16T02:10:55.574Z,-4.99
2023-03-16T02:11:06.342Z,-4.99
2023-03-16T02:11:18.764Z,-4.99
2023-03-16T02:11:30.812Z,-4.99
2023-03-16T02:11:42.804Z,-5.01
2023-03-16T02:11:55.534Z,-5.01
2023-03-16T02:12:09.454Z,-5.01
2023-03-16T02:12:21.715Z,-5.01
2023-03-16T02:12:33.833Z,-4.99
2023-03-16T02:12:44.598Z,-4.99
2023-03-16T02:12:56.296Z,-5.02
2023-03-16T02:13:09.551Z,-5.01
2023-03-16T02:13:20.297Z,-5.01
2023-03-16T02:13:32.906Z,-5.03
2023-03-16T02:13:45.425Z,-5.03
2023-03-16T02:13:57.393Z,-5.02
2023-03-16T02:14:08.206Z,-5.02
2023-03-16T02:14:20.726Z,-5.02
2023-03-16T02:14:31.521Z,-5.02
2023-03-16T02:14:42.314Z,-5.03
2023-03-16T02:14:53.075Z,-5.03
2023-03-16T02:15:04.826Z,-5.02
2023-03-16T02:15:16.655Z,-5.02
2023-03-16T02:15:27.573Z,-5.05
2023-03-16T02:15:38.510Z,-5.03
2023-03-16T02:15:51.030Z,-5.03
2023-03-16T02:16:03.567Z,-5.03
2023-03-16T02:16:14.544Z,-5.03
2023-03-16T02:16:25.394Z,-5.05
2023-03-16T02:16:37.633Z,-5.05
2023-03-16T02:16:48.404Z,-5.05
2023-03-16T02:17:00.896Z,-5.06
2023-03-16T02:17:13.324Z,-5.05
2023-03-16T02:17:24.190Z,-5.05
2023-03-16T02:17:36.502Z,-5.05
2023-03-16T02:17:47.270Z,-5.05
2023-03-16T02:17:59.135Z,-5.06
2023-03-16T02:18:10.912Z,-5.06
2023-03-16T02:18:23.213Z,-5.06
2023-03-16T02:18:33.971Z,-5.05
2023-03-16T02:18:46.192Z,-5.06
2023-03-16T02:18:58.639Z,-5.05
2023-03-16T02:19:09.380Z,-5.06
2023-03-16T02:19:21.654Z,-5.05
2023-03-16T02:19:32.492Z,-5.06
2023-03-16T02:19:43.328Z,-5.06
2023-03-16T02:19:55.782Z,-5.06
2023-03-16T02:20:06.577Z,-5.05
2023-03-16T02:20:18.334Z,-5.05
2023-03-16T02:20:29.600Z,-5.06
2023-03-16T02:20:41.531Z,-5.05
2023-03-16T02:20:52.321Z,-5.06
2023-03-16T02:21:03.145Z,-5.06
2023-03-16T02:21:13.893Z,-5.06
2023-03-16T02:21:25.723Z,-5.08
2023-03-16T02:21:36.516Z,-5.08
2023-03-16T02:21:48.274Z,-5.08
2023-03-16T02:21:59.066Z,-5.08
2023-03-16T02:22:09.865Z,-5.08
2023-03-16T02:22:20.634Z,-5.09
2023-03-16T02:22:31.433Z,-5.09
2023-03-16T02:22:42.215Z,-5.08
2023-03-16T02:22:52.988Z,-5.08
2023-03-16T02:23:04.972Z,-5.08
2023-03-16T02:23:17.418Z,-5.08
2023-03-16T02:23:28.187Z,-5.08
2023-03-16T02:23:38.967Z,-5.08
2023-03-16T02:23:49.824Z,-5.08
2023-03-16T02:24:00.674Z,-5.08
2023-03-16T02:24:11.508Z,-5.08
2023-03-16T02:24:23.220Z,-5.11
2023-03-16T02:24:35.424Z,-5.09
2023-03-16T02:24:47.885Z,-5.09
2023-03-16T02:24:58.658Z,-5.08
2023-03-16T02:25:09.491Z,-5.09
2023-03-16T02:25:21.896Z,-5.08
2023-03-16T02:25:32.648Z,-5.09
2023-03-16T02:25:43.404Z,-5.08
2023-03-16T02:25:54.218Z,-5.09
2023-03-16T02:26:04.997Z,-5.09
2023-03-16T02:26:15.785Z,-5.08
2023-03-16T02:26:28.239Z,-5.09
2023-03-16T02:26:41.445Z,-5.09
2023-03-16T02:26:54.198Z,-5.08
2023-03-16T02:27:05.017Z,-5.09
2023-03-16T02:27:15.776Z,-5.08
2023-03-16T02:27:27.529Z,-5.08
2023-03-16T02:27:40.726Z,-5.06
2023-03-16T02:27:52.487Z,-5.08
2023-03-16T02:28:04.284Z,-5.08
2023-03-16T02:28:15.026Z,-5.08
2023-03-16T02:28:25.777Z,-5.06
2023-03-16T02:28:37.557Z,-5.08
2023-03-16T02:28:48.372Z,-5.08
2023-03-16T02:28:59.156Z,-5.06
2023-03-16T02:29:10.873Z,-5.06
2023-03-16T02:29:22.647Z,-5.09